sensor_id;sensor_type;location;lat;lon;timestamp;P1;durP1;ratioP1;P2;durP2;ratioP2
55220;SDS011;41089;51.448;6.604;2023-04-05T00:05:00;6.72;;;5.35;;
55220;SDS011;41089;51.448;6.604;2023-04-05T00:11:02;9.23;;;5.60;;
55220;SDS011;41089;51.448;6.604;2023-04-05T00:17:02;9.45;;;5.28;;
55220;SDS011;41089;51.448;6.604;2023-04-05T00:23:03;8.80;;;5.10;;
55220;SDS011;41089;51.448;6.604;2023-04-05T00:29:05;7.18;;;4.68;;
55220;SDS011;41089;51.448;6.604;2023-04-05T00:35:06;8.82;;;5.18;;
55220;SDS011;41089;51.448;6.604;2023-04-05T00:41:07;8.25;;;4.88;;
55220;SDS011;41089;51.448;6.604;2023-04-05T00:47:07;6.38;;;5.07;;
55220;SDS011;41089;51.448;6.604;2023-04-05T00:53:10;7.78;;;4.72;;
55220;SDS011;41089;51.448;6.604;2023-04-05T00:59:11;9.93;;;5.78;;
55220;SDS011;41089;51.448;6.604;2023-04-05T01:05:24;10.97;;;5.80;;
55220;SDS011;41089;51.448;6.604;2023-04-05T01:11:29;9.13;;;5.43;;
55220;SDS011;41089;51.448;6.604;2023-04-05T01:17:31;8.98;;;5.70;;
55220;SDS011;41089;51.448;6.604;2023-04-05T01:24:12;10.13;;;5.60;;
55220;SDS011;41089;51.448;6.604;2023-04-05T01:30:14;9.40;;;5.30;;
55220;SDS011;41089;51.448;6.604;2023-04-05T01:36:52;9.98;;;6.32;;
55220;SDS011;41089;51.448;6.604;2023-04-05T01:42:44;9.95;;;6.05;;
55220;SDS011;41089;51.448;6.604;2023-04-05T01:48:45;11.20;;;5.88;;
55220;SDS011;41089;51.448;6.604;2023-04-05T01:54:46;14.43;;;6.30;;
55220;SDS011;41089;51.448;6.604;2023-04-05T02:00:46;8.05;;;5.55;;
55220;SDS011;41089;51.448;6.604;2023-04-05T02:06:47;9.25;;;6.22;;
55220;SDS011;41089;51.448;6.604;2023-04-05T02:12:47;9.38;;;5.88;;
55220;SDS011;41089;51.448;6.604;2023-04-05T02:18:48;11.18;;;5.80;;
55220;SDS011;41089;51.448;6.604;2023-04-05T02:24:50;9.85;;;5.97;;
55220;SDS011;41089;51.448;6.604;2023-04-05T02:30:51;11.43;;;6.28;;
55220;SDS011;41089;51.448;6.604;2023-04-05T02:36:51;8.73;;;6.25;;
55220;SDS011;41089;51.448;6.604;2023-04-05T02:42:53;11.13;;;6.05;;
55220;SDS011;41089;51.448;6.604;2023-04-05T02:48:53;11.15;;;6.40;;
55220;SDS011;41089;51.448;6.604;2023-04-05T02:54:54;12.00;;;7.60;;
55220;SDS011;41089;51.448;6.604;2023-04-05T03:00:54;13.30;;;6.85;;
55220;SDS011;41089;51.448;6.604;2023-04-05T03:06:55;15.13;;;6.40;;
55220;SDS011;41089;51.448;6.604;2023-04-05T03:12:56;12.88;;;6.50;;
55220;SDS011;41089;51.448;6.604;2023-04-05T03:18:57;10.10;;;6.22;;
55220;SDS011;41089;51.448;6.604;2023-04-05T03:24:59;8.80;;;6.07;;
55220;SDS011;41089;51.448;6.604;2023-04-05T03:30:59;9.80;;;6.50;;
55220;SDS011;41089;51.448;6.604;2023-04-05T03:37:00;10.63;;;5.82;;
55220;SDS011;41089;51.448;6.604;2023-04-05T03:43:00;11.13;;;6.28;;
55220;SDS011;41089;51.448;6.604;2023-04-05T03:49:01;11.10;;;6.40;;
55220;SDS011;41089;51.448;6.604;2023-04-05T03:55:01;15.93;;;7.32;;
55220;SDS011;41089;51.448;6.604;2023-04-05T04:01:02;9.70;;;6.97;;
55220;SDS011;41089;51.448;6.604;2023-04-05T04:07:03;15.23;;;6.75;;
55220;SDS011;41089;51.448;6.604;2023-04-05T04:13:03;10.88;;;6.32;;
55220;SDS011;41089;51.448;6.604;2023-04-05T04:19:03;9.38;;;6.68;;
55220;SDS011;41089;51.448;6.604;2023-04-05T04:31:12;14.85;;;7.40;;
55220;SDS011;41089;51.448;6.604;2023-04-05T04:37:14;14.50;;;7.10;;
55220;SDS011;41089;51.448;6.604;2023-04-05T04:43:17;14.35;;;8.55;;
55220;SDS011;41089;51.448;6.604;2023-04-05T04:49:18;12.65;;;6.15;;
55220;SDS011;41089;51.448;6.604;2023-04-05T04:55:20;7.43;;;6.07;;
55220;SDS011;41089;51.448;6.604;2023-04-05T05:01:24;10.93;;;7.50;;
55220;SDS011;41089;51.448;6.604;2023-04-05T05:07:25;21.70;;;10.60;;
55220;SDS011;41089;51.448;6.604;2023-04-05T05:13:26;17.05;;;9.25;;
55220;SDS011;41089;51.448;6.604;2023-04-05T05:19:26;15.27;;;8.05;;
55220;SDS011;41089;51.448;6.604;2023-04-05T05:25:28;22.33;;;9.48;;
55220;SDS011;41089;51.448;6.604;2023-04-05T05:31:28;14.13;;;7.97;;
55220;SDS011;41089;51.448;6.604;2023-04-05T05:37:30;14.38;;;8.32;;
55220;SDS011;41089;51.448;6.604;2023-04-05T05:43:31;16.80;;;9.43;;
55220;SDS011;41089;51.448;6.604;2023-04-05T05:49:31;18.40;;;8.80;;
55220;SDS011;41089;51.448;6.604;2023-04-05T05:55:32;16.52;;;9.02;;
55220;SDS011;41089;51.448;6.604;2023-04-05T06:01:32;18.88;;;8.98;;
55220;SDS011;41089;51.448;6.604;2023-04-05T06:07:37;14.48;;;9.02;;
55220;SDS011;41089;51.448;6.604;2023-04-05T06:13:37;16.70;;;8.88;;
55220;SDS011;41089;51.448;6.604;2023-04-05T06:19:39;16.63;;;9.50;;
55220;SDS011;41089;51.448;6.604;2023-04-05T06:25:41;19.75;;;10.23;;
55220;SDS011;41089;51.448;6.604;2023-04-05T06:31:42;26.65;;;11.05;;
55220;SDS011;41089;51.448;6.604;2023-04-05T06:37:45;13.55;;;9.20;;
55220;SDS011;41089;51.448;6.604;2023-04-05T06:43:45;18.25;;;9.68;;
55220;SDS011;41089;51.448;6.604;2023-04-05T06:49:47;20.58;;;11.05;;
55220;SDS011;41089;51.448;6.604;2023-04-05T06:55:48;18.33;;;8.65;;
55220;SDS011;41089;51.448;6.604;2023-04-05T07:01:49;14.93;;;8.23;;
55220;SDS011;41089;51.448;6.604;2023-04-05T07:07:50;12.70;;;7.47;;
55220;SDS011;41089;51.448;6.604;2023-04-05T07:13:52;14.07;;;6.85;;
55220;SDS011;41089;51.448;6.604;2023-04-05T07:19:52;15.38;;;8.35;;
55220;SDS011;41089;51.448;6.604;2023-04-05T07:25:53;13.55;;;6.90;;
55220;SDS011;41089;51.448;6.604;2023-04-05T07:31:53;11.57;;;7.18;;
55220;SDS011;41089;51.448;6.604;2023-04-05T07:37:54;15.55;;;7.40;;
55220;SDS011;41089;51.448;6.604;2023-04-05T07:43:55;18.25;;;7.03;;
55220;SDS011;41089;51.448;6.604;2023-04-05T07:49:55;15.63;;;7.70;;
55220;SDS011;41089;51.448;6.604;2023-04-05T07:55:56;22.73;;;10.13;;
55220;SDS011;41089;51.448;6.604;2023-04-05T08:01:56;19.35;;;10.65;;
55220;SDS011;41089;51.448;6.604;2023-04-05T08:14:54;14.55;;;8.63;;
55220;SDS011;41089;51.448;6.604;2023-04-05T08:20:55;15.98;;;7.47;;
55220;SDS011;41089;51.448;6.604;2023-04-05T08:26:56;17.52;;;8.45;;
55220;SDS011;41089;51.448;6.604;2023-04-05T08:32:57;17.85;;;9.48;;
55220;SDS011;41089;51.448;6.604;2023-04-05T08:38:58;13.77;;;7.88;;
55220;SDS011;41089;51.448;6.604;2023-04-05T08:44:59;12.80;;;7.27;;
55220;SDS011;41089;51.448;6.604;2023-04-05T08:51:00;16.67;;;8.07;;
55220;SDS011;41089;51.448;6.604;2023-04-05T08:57:02;13.63;;;7.05;;
55220;SDS011;41089;51.448;6.604;2023-04-05T09:03:04;12.57;;;8.23;;
55220;SDS011;41089;51.448;6.604;2023-04-05T09:09:06;15.05;;;8.57;;
55220;SDS011;41089;51.448;6.604;2023-04-05T09:15:07;13.07;;;8.07;;
55220;SDS011;41089;51.448;6.604;2023-04-05T09:21:08;13.43;;;7.85;;
55220;SDS011;41089;51.448;6.604;2023-04-05T09:27:10;15.60;;;8.45;;
55220;SDS011;41089;51.448;6.604;2023-04-05T09:33:12;12.15;;;7.53;;
55220;SDS011;41089;51.448;6.604;2023-04-05T09:39:16;8.65;;;5.55;;
55220;SDS011;41089;51.448;6.604;2023-04-05T09:45:22;7.65;;;4.68;;
55220;SDS011;41089;51.448;6.604;2023-04-05T09:51:36;6.22;;;5.03;;
55220;SDS011;41089;51.448;6.604;2023-04-05T09:57:38;11.40;;;6.40;;
55220;SDS011;41089;51.448;6.604;2023-04-05T10:03:48;8.50;;;5.72;;
55220;SDS011;41089;51.448;6.604;2023-04-05T10:09:49;13.17;;;6.10;;
55220;SDS011;41089;51.448;6.604;2023-04-05T10:15:49;12.87;;;6.27;;
55220;SDS011;41089;51.448;6.604;2023-04-05T10:21:50;12.70;;;7.30;;
55220;SDS011;41089;51.448;6.604;2023-04-05T10:27:53;8.70;;;6.13;;
55220;SDS011;41089;51.448;6.604;2023-04-05T10:34:11;12.10;;;6.88;;
55220;SDS011;41089;51.448;6.604;2023-04-05T10:40:25;13.57;;;7.38;;
55220;SDS011;41089;51.448;6.604;2023-04-05T10:46:30;11.57;;;7.68;;
55220;SDS011;41089;51.448;6.604;2023-04-05T10:52:32;10.27;;;7.35;;
55220;SDS011;41089;51.448;6.604;2023-04-05T10:58:34;15.55;;;7.00;;
55220;SDS011;41089;51.448;6.604;2023-04-05T11:04:34;14.07;;;7.25;;
55220;SDS011;41089;51.448;6.604;2023-04-05T11:10:37;9.25;;;6.60;;
55220;SDS011;41089;51.448;6.604;2023-04-05T11:16:40;10.70;;;6.80;;
55220;SDS011;41089;51.448;6.604;2023-04-05T11:22:40;11.93;;;6.82;;
55220;SDS011;41089;51.448;6.604;2023-04-05T11:28:56;12.27;;;7.93;;
55220;SDS011;41089;51.448;6.604;2023-04-05T11:35:04;14.60;;;7.68;;
55220;SDS011;41089;51.448;6.604;2023-04-05T11:41:12;11.15;;;7.55;;
55220;SDS011;41089;51.448;6.604;2023-04-05T11:47:17;10.35;;;7.00;;
55220;SDS011;41089;51.448;6.604;2023-04-05T11:53:20;13.27;;;7.72;;
55220;SDS011;41089;51.448;6.604;2023-04-05T11:59:26;9.40;;;7.43;;
55220;SDS011;41089;51.448;6.604;2023-04-05T12:05:43;16.52;;;7.82;;
55220;SDS011;41089;51.448;6.604;2023-04-05T12:11:50;12.38;;;7.15;;
55220;SDS011;41089;51.448;6.604;2023-04-05T12:17:54;12.00;;;7.78;;
55220;SDS011;41089;51.448;6.604;2023-04-05T12:23:54;13.38;;;7.50;;
55220;SDS011;41089;51.448;6.604;2023-04-05T12:30:08;10.57;;;8.07;;
55220;SDS011;41089;51.448;6.604;2023-04-05T12:36:18;10.48;;;7.40;;
55220;SDS011;41089;51.448;6.604;2023-04-05T12:42:18;13.57;;;7.13;;
55220;SDS011;41089;51.448;6.604;2023-04-05T12:48:22;9.02;;;7.38;;
55220;SDS011;41089;51.448;6.604;2023-04-05T12:54:24;15.63;;;7.72;;
55220;SDS011;41089;51.448;6.604;2023-04-05T13:00:27;11.25;;;7.75;;
55220;SDS011;41089;51.448;6.604;2023-04-05T13:06:28;11.50;;;6.97;;
55220;SDS011;41089;51.448;6.604;2023-04-05T13:12:30;12.43;;;6.90;;
55220;SDS011;41089;51.448;6.604;2023-04-05T13:18:31;10.30;;;6.60;;
55220;SDS011;41089;51.448;6.604;2023-04-05T13:24:31;11.70;;;7.20;;
55220;SDS011;41089;51.448;6.604;2023-04-05T13:30:31;10.02;;;6.80;;
55220;SDS011;41089;51.448;6.604;2023-04-05T13:36:32;17.35;;;7.32;;
55220;SDS011;41089;51.448;6.604;2023-04-05T13:42:33;8.07;;;5.97;;
55220;SDS011;41089;51.448;6.604;2023-04-05T13:48:34;8.82;;;5.68;;
55220;SDS011;41089;51.448;6.604;2023-04-05T13:54:35;11.50;;;5.32;;
55220;SDS011;41089;51.448;6.604;2023-04-05T14:00:36;8.18;;;5.97;;
55220;SDS011;41089;51.448;6.604;2023-04-05T14:06:39;7.93;;;6.28;;
55220;SDS011;41089;51.448;6.604;2023-04-05T14:12:39;8.83;;;6.17;;
55220;SDS011;41089;51.448;6.604;2023-04-05T14:18:40;13.15;;;6.28;;
55220;SDS011;41089;51.448;6.604;2023-04-05T14:24:40;10.00;;;6.40;;
55220;SDS011;41089;51.448;6.604;2023-04-05T14:30:41;10.87;;;6.43;;
55220;SDS011;41089;51.448;6.604;2023-04-05T14:36:41;10.75;;;6.13;;
55220;SDS011;41089;51.448;6.604;2023-04-05T14:42:42;9.40;;;6.05;;
55220;SDS011;41089;51.448;6.604;2023-04-05T14:48:42;10.70;;;5.72;;
55220;SDS011;41089;51.448;6.604;2023-04-05T14:54:43;8.73;;;5.70;;
55220;SDS011;41089;51.448;6.604;2023-04-05T15:00:44;7.63;;;5.15;;
55220;SDS011;41089;51.448;6.604;2023-04-05T15:06:47;6.57;;;5.03;;
55220;SDS011;41089;51.448;6.604;2023-04-05T15:12:48;7.50;;;5.20;;
55220;SDS011;41089;51.448;6.604;2023-04-05T15:18:48;10.63;;;5.40;;
55220;SDS011;41089;51.448;6.604;2023-04-05T15:24:50;6.68;;;5.03;;
55220;SDS011;41089;51.448;6.604;2023-04-05T15:30:50;7.55;;;5.13;;
55220;SDS011;41089;51.448;6.604;2023-04-05T15:36:51;9.13;;;5.40;;
55220;SDS011;41089;51.448;6.604;2023-04-05T15:42:53;7.72;;;5.50;;
55220;SDS011;41089;51.448;6.604;2023-04-05T15:48:54;7.05;;;4.70;;
55220;SDS011;41089;51.448;6.604;2023-04-05T15:54:55;8.25;;;5.35;;
55220;SDS011;41089;51.448;6.604;2023-04-05T16:00:55;5.43;;;4.67;;
55220;SDS011;41089;51.448;6.604;2023-04-05T16:06:56;7.85;;;5.22;;
55220;SDS011;41089;51.448;6.604;2023-04-05T16:12:56;8.02;;;4.45;;
55220;SDS011;41089;51.448;6.604;2023-04-05T16:18:57;9.38;;;5.07;;
55220;SDS011;41089;51.448;6.604;2023-04-05T16:24:58;5.25;;;4.60;;
55220;SDS011;41089;51.448;6.604;2023-04-05T16:30:59;9.23;;;5.07;;
55220;SDS011;41089;51.448;6.604;2023-04-05T16:37:01;10.25;;;5.35;;
55220;SDS011;41089;51.448;6.604;2023-04-05T16:43:01;6.63;;;5.00;;
55220;SDS011;41089;51.448;6.604;2023-04-05T16:49:02;13.48;;;6.68;;
55220;SDS011;41089;51.448;6.604;2023-04-05T16:55:03;7.28;;;5.20;;
55220;SDS011;41089;51.448;6.604;2023-04-05T17:01:03;5.75;;;4.80;;
55220;SDS011;41089;51.448;6.604;2023-04-05T17:07:04;7.87;;;5.60;;
55220;SDS011;41089;51.448;6.604;2023-04-05T17:13:04;7.18;;;5.40;;
55220;SDS011;41089;51.448;6.604;2023-04-05T17:19:06;6.85;;;5.07;;
55220;SDS011;41089;51.448;6.604;2023-04-05T17:25:06;6.97;;;5.38;;
55220;SDS011;41089;51.448;6.604;2023-04-05T17:31:07;8.68;;;5.32;;
55220;SDS011;41089;51.448;6.604;2023-04-05T17:37:08;6.03;;;5.25;;
55220;SDS011;41089;51.448;6.604;2023-04-05T17:43:08;9.10;;;6.55;;
55220;SDS011;41089;51.448;6.604;2023-04-05T17:49:11;9.05;;;6.70;;
55220;SDS011;41089;51.448;6.604;2023-04-05T17:55:12;8.23;;;6.37;;
55220;SDS011;41089;51.448;6.604;2023-04-05T18:01:12;9.85;;;7.28;;
55220;SDS011;41089;51.448;6.604;2023-04-05T18:07:13;8.63;;;5.97;;
55220;SDS011;41089;51.448;6.604;2023-04-05T18:13:14;9.43;;;5.97;;
55220;SDS011;41089;51.448;6.604;2023-04-05T18:19:14;10.30;;;5.60;;
55220;SDS011;41089;51.448;6.604;2023-04-05T18:25:16;8.98;;;6.65;;
55220;SDS011;41089;51.448;6.604;2023-04-05T18:31:17;12.35;;;7.47;;
55220;SDS011;41089;51.448;6.604;2023-04-05T18:37:17;8.20;;;6.50;;
55220;SDS011;41089;51.448;6.604;2023-04-05T18:43:18;9.18;;;6.68;;
55220;SDS011;41089;51.448;6.604;2023-04-05T18:49:18;7.67;;;6.87;;
55220;SDS011;41089;51.448;6.604;2023-04-05T18:55:19;9.50;;;7.68;;
55220;SDS011;41089;51.448;6.604;2023-04-05T19:01:19;10.88;;;8.77;;
55220;SDS011;41089;51.448;6.604;2023-04-05T19:07:20;12.93;;;9.30;;
55220;SDS011;41089;51.448;6.604;2023-04-05T19:13:21;11.88;;;8.30;;
55220;SDS011;41089;51.448;6.604;2023-04-05T19:19:21;9.43;;;7.40;;
55220;SDS011;41089;51.448;6.604;2023-04-05T19:25:22;9.43;;;7.35;;
55220;SDS011;41089;51.448;6.604;2023-04-05T19:31:22;11.27;;;7.63;;
55220;SDS011;41089;51.448;6.604;2023-04-05T19:37:23;9.18;;;7.25;;
55220;SDS011;41089;51.448;6.604;2023-04-05T19:43:23;8.67;;;7.37;;
55220;SDS011;41089;51.448;6.604;2023-04-05T19:49:28;10.75;;;7.82;;
55220;SDS011;41089;51.448;6.604;2023-04-05T19:55:36;11.43;;;8.27;;
55220;SDS011;41089;51.448;6.604;2023-04-05T20:01:39;10.38;;;7.90;;
55220;SDS011;41089;51.448;6.604;2023-04-05T20:07:40;12.15;;;8.60;;
55220;SDS011;41089;51.448;6.604;2023-04-05T20:13:43;10.98;;;8.50;;
55220;SDS011;41089;51.448;6.604;2023-04-05T20:19:55;14.43;;;8.95;;
55220;SDS011;41089;51.448;6.604;2023-04-05T20:25:59;11.40;;;8.55;;
55220;SDS011;41089;51.448;6.604;2023-04-05T20:31:59;12.00;;;9.53;;
55220;SDS011;41089;51.448;6.604;2023-04-05T20:38:00;12.85;;;9.55;;
55220;SDS011;41089;51.448;6.604;2023-04-05T20:44:00;13.60;;;9.73;;
55220;SDS011;41089;51.448;6.604;2023-04-05T20:50:01;20.70;;;10.20;;
55220;SDS011;41089;51.448;6.604;2023-04-05T20:56:03;14.15;;;9.80;;
55220;SDS011;41089;51.448;6.604;2023-04-05T21:02:05;16.55;;;9.00;;
55220;SDS011;41089;51.448;6.604;2023-04-05T21:08:06;15.13;;;10.23;;
55220;SDS011;41089;51.448;6.604;2023-04-05T21:14:07;13.93;;;9.70;;
55220;SDS011;41089;51.448;6.604;2023-04-05T21:20:07;14.07;;;9.90;;
55220;SDS011;41089;51.448;6.604;2023-04-05T21:26:08;12.88;;;9.25;;
55220;SDS011;41089;51.448;6.604;2023-04-05T21:32:08;16.27;;;10.37;;
55220;SDS011;41089;51.448;6.604;2023-04-05T21:38:09;19.33;;;9.43;;
55220;SDS011;41089;51.448;6.604;2023-04-05T21:44:10;16.33;;;10.23;;
55220;SDS011;41089;51.448;6.604;2023-04-05T21:50:10;16.43;;;10.73;;
55220;SDS011;41089;51.448;6.604;2023-04-05T21:56:11;17.77;;;11.68;;
55220;SDS011;41089;51.448;6.604;2023-04-05T22:02:12;13.57;;;10.10;;
55220;SDS011;41089;51.448;6.604;2023-04-05T22:08:12;15.45;;;10.75;;
55220;SDS011;41089;51.448;6.604;2023-04-05T22:14:13;17.53;;;10.20;;
55220;SDS011;41089;51.448;6.604;2023-04-05T22:20:13;17.43;;;11.27;;
55220;SDS011;41089;51.448;6.604;2023-04-05T22:26:14;14.98;;;11.13;;
55220;SDS011;41089;51.448;6.604;2023-04-05T22:32:15;16.00;;;10.60;;
55220;SDS011;41089;51.448;6.604;2023-04-05T22:38:16;18.15;;;10.93;;
55220;SDS011;41089;51.448;6.604;2023-04-05T22:44:16;18.17;;;10.57;;
55220;SDS011;41089;51.448;6.604;2023-04-05T22:50:17;17.23;;;10.43;;
55220;SDS011;41089;51.448;6.604;2023-04-05T22:56:18;15.85;;;9.80;;
55220;SDS011;41089;51.448;6.604;2023-04-05T23:02:20;14.93;;;10.43;;
55220;SDS011;41089;51.448;6.604;2023-04-05T23:08:22;15.30;;;11.02;;
55220;SDS011;41089;51.448;6.604;2023-04-05T23:14:22;17.10;;;11.27;;
55220;SDS011;41089;51.448;6.604;2023-04-05T23:20:23;16.80;;;11.35;;
55220;SDS011;41089;51.448;6.604;2023-04-05T23:26:25;13.38;;;10.05;;
55220;SDS011;41089;51.448;6.604;2023-04-05T23:32:30;13.55;;;10.25;;
55220;SDS011;41089;51.448;6.604;2023-04-05T23:38:30;13.07;;;10.20;;
55220;SDS011;41089;51.448;6.604;2023-04-05T23:44:31;14.85;;;9.82;;
55220;SDS011;41089;51.448;6.604;2023-04-05T23:50:31;15.20;;;10.63;;
55220;SDS011;41089;51.448;6.604;2023-04-05T23:56:32;13.70;;;10.15;;
